Jasper S — V2CQ4 — position and weather

sailwx.info

Track history (hours):
 
Tides and Currents Weather Stations Pressure Air Temp Water Temp Dewpoint Dewpoint Depression Visibility Wind Speed Wind Dir Waves Ship Positions

Jasper S

Last reported at 2014-Sep-16 22:28 UTC. Time now 2014-Sep-19 22:01 UTC.
Position N 35°43' W 000°38'.

Length 148 m; draft 8.5 m.

Type: Cargo ship. MMSI: 305079000.

Date/timePositionNaut miles runAvg speedWind from/ knotsBaromVisibWave heightAir tempDewpointWater temp
2014-Sep-16 22:28N 35°43' W 000°38'0 0.0
2014-Sep-16 21:28N 35°43' W 000°38'0 0.0
2014-Sep-16 17:22N 35°43' W 000°38'0 0.0
2014-Sep-16 16:28N 35°43' W 000°38'0 0.0
2014-Sep-16 12:10N 35°43' W 000°38'2 0.4
2014-Sep-16 07:13N 35°44' W 000°37'0 0.0
2014-Sep-16 06:31N 35°44' W 000°37'0 0.0
2014-Sep-16 03:04N 35°44' W 000°37'0 0.0
2014-Sep-15 20:25N 35°44' W 000°37'0 0.1
2014-Sep-15 19:33N 35°44' W 000°37'0 0.0
2014-Sep-15 16:20N 35°44' W 000°37'0 0.1
2014-Sep-15 15:28N 35°44' W 000°37'0 0.0
2014-Sep-15 13:28N 35°44' W 000°37'0 0.3
2014-Sep-15 12:33N 35°45' W 000°37'1410.9
2014-Sep-15 11:17N 35°58' W 000°32'1013.5
2014-Sep-15 10:34N 36°07' W 000°27'5814.5
2014-Sep-15 06:32N 37°03' W 000°06'1815.3
2014-Sep-15 05:23N 37°20' W 000°00'1214.7
2014-Sep-15 04:33N 37°31' E 000°05'1514.7
2014-Sep-15 03:33N 37°46' E 000°09'1514.7
2014-Sep-15 02:33N 37°60' E 000°14'8613.2
2014-Sep-14 20:04N 39°22' W 000°12'612.4
2014-Sep-14 19:33N 39°26' W 000°19'0 0.3
2014-Sep-14 18:33N 39°26' W 000°19'0 0.0
2014-Sep-14 17:33N 39°26' W 000°19'0 0.0
2014-Sep-14 16:33N 39°26' W 000°19'0 0.0
2014-Sep-14 15:33N 39°26' W 000°19'0 0.0
2014-Sep-14 14:33N 39°26' W 000°19'0 0.0
2014-Sep-14 13:33N 39°26' W 000°19'0 0.0
2014-Sep-14 12:33N 39°26' W 000°19'0 0.0
2014-Sep-14 11:33N 39°26' W 000°19'0 0.0
2014-Sep-14 10:33N 39°26' W 000°19'0 0.0
2014-Sep-14 09:33N 39°26' W 000°19'0 0.0
2014-Sep-14 08:32N 39°26' W 000°19'0 0.0
2014-Sep-14 07:32N 39°26' W 000°19'0 0.0
2014-Sep-14 06:29N 39°26' W 000°19'0 0.0
2014-Sep-14 05:33N 39°26' W 000°19'1 0.5
2014-Sep-14 04:32N 39°26' W 000°19'0 0.0
2014-Sep-14 03:32N 39°26' W 000°19'0 0.0
2014-Sep-14 02:32N 39°26' W 000°19'0 0.0
2014-Sep-14 01:32N 39°26' W 000°19'0 0.0
2014-Sep-13 21:32N 39°26' W 000°19'0 0.0
2014-Sep-13 20:32N 39°26' W 000°19'0 0.0
2014-Sep-13 19:32N 39°26' W 000°19'0 0.0
2014-Sep-13 18:32N 39°26' W 000°19'0 0.0
2014-Sep-13 17:32N 39°26' W 000°19'0 0.0
2014-Sep-13 16:29N 39°26' W 000°19'0 0.0
2014-Sep-13 15:32N 39°26' W 000°19'0 0.0
2014-Sep-13 14:32N 39°26' W 000°19'0 0.0
2014-Sep-13 13:32N 39°26' W 000°19'0 0.0
2014-Sep-13 12:32N 39°26' W 000°19'0 0.0
2014-Sep-13 11:32N 39°26' W 000°19'0 0.0
2014-Sep-13 10:32N 39°26' W 000°19'0 0.0
2014-Sep-13 09:32N 39°26' W 000°19'0 0.0
2014-Sep-13 08:32N 39°26' W 000°19'0 0.0
2014-Sep-13 07:32N 39°26' W 000°19'0 0.0
2014-Sep-13 06:32N 39°26' W 000°19'0 0.0
2014-Sep-13 05:32N 39°26' W 000°19'0 0.0
2014-Sep-13 04:32N 39°26' W 000°19'0 0.0
2014-Sep-13 03:32N 39°26' W 000°19'0 0.0
2014-Sep-13 02:32N 39°26' W 000°19'0 0.0
2014-Sep-13 01:29N 39°26' W 000°19'0 0.3
2014-Sep-13 00:33N 39°26' W 000°19'3 0.6
2014-Sep-12 19:23N 39°24' W 000°17'0 0.0
2014-Sep-12 17:29N 39°24' W 000°17'0 0.0
2014-Sep-12 15:11N 39°24' W 000°17'1 1.0
2014-Sep-12 14:33N 39°23' W 000°16'7 7.3
2014-Sep-12 13:33N 39°19' W 000°09'51 8.4
2014-Sep-12 07:33N 38°37' E 000°29'10 8.7
2014-Sep-12 06:23N 38°27' E 000°25'9 8.1
2014-Sep-12 05:18N 38°19' E 000°22'7 9.3
2014-Sep-12 04:33N 38°12' E 000°20'9 8.9
2014-Sep-12 03:33N 38°04' E 000°17'9 9.1
2014-Sep-12 02:33N 37°55' E 000°14'10 9.7
2014-Sep-12 01:33N 37°45' E 000°11'9 9.5
2014-Sep-12 00:33N 37°36' E 000°08'9 9.2
2014-Sep-11 23:32N 37°27' E 000°05'9 9.3
2014-Sep-11 22:32N 37°18' E 000°02'9 9.5
2014-Sep-11 21:33N 37°09' W 000°01'14 9.9
2014-Sep-11 20:06N 36°55' W 000°06'24 9.4
2014-Sep-11 17:32N 36°32' W 000°13'9 9.2
2014-Sep-11 16:33N 36°23' W 000°16'9 9.3
2014-Sep-11 15:33N 36°14' W 000°19'10 9.5
2014-Sep-11 14:28N 36°04' W 000°23'2311.8
2014-Sep-11 12:30N 35°44' W 000°37'2 0.1
2014-Sep-11 00:17N 35°43' W 000°38'0 0.0
2014-Sep-08 21:24N 35°43' W 000°38'0 0.0
2014-Sep-08 18:15N 35°43' W 000°38'0 0.0
2014-Sep-08 17:30N 35°43' W 000°38'0 0.0
2014-Sep-08 13:18N 35°43' W 000°38'0 0.0
2014-Sep-08 11:30N 35°43' W 000°38'1 0.1
2014-Sep-07 18:27N 35°43' W 000°37'1 0.9
2014-Sep-07 17:19N 35°44' W 000°37'0 0.0
2014-Sep-07 14:18N 35°44' W 000°37'0 0.0
2014-Sep-07 13:25N 35°44' W 000°37'0 0.0
2014-Sep-07 07:32N 35°45' W 000°37'  
Track history (hours):
 
Tides and Currents Weather Stations Pressure Air Temp Water Temp Dewpoint Dewpoint Depression Visibility Wind Speed Wind Dir Waves Ship Positions

Jasper S

Last reported at 2014-Sep-16 22:28 UTC. Time now 2014-Sep-19 22:01 UTC.
Position N 35°43' W 000°38'.

Length 148 m; draft 8.5 m.

Type: Cargo ship. MMSI: 305079000.

Date/timePositionNaut miles runAvg speedWind from/ knotsBaromVisibWave heightAir tempDewpointWater temp
2014-Sep-16 22:28N 35°43' W 000°38'0 0.0
2014-Sep-16 21:28N 35°43' W 000°38'0 0.0
2014-Sep-16 17:22N 35°43' W 000°38'0 0.0
2014-Sep-16 16:28N 35°43' W 000°38'0 0.0
2014-Sep-16 12:10N 35°43' W 000°38'2 0.4
2014-Sep-16 07:13N 35°44' W 000°37'0 0.0
2014-Sep-16 06:31N 35°44' W 000°37'0 0.0
2014-Sep-16 03:04N 35°44' W 000°37'0 0.0
2014-Sep-15 20:25N 35°44' W 000°37'0 0.1
2014-Sep-15 19:33N 35°44' W 000°37'0 0.0
2014-Sep-15 16:20N 35°44' W 000°37'0 0.1
2014-Sep-15 15:28N 35°44' W 000°37'0 0.0
2014-Sep-15 13:28N 35°44' W 000°37'0 0.3
2014-Sep-15 12:33N 35°45' W 000°37'1410.9
2014-Sep-15 11:17N 35°58' W 000°32'1013.5
2014-Sep-15 10:34N 36°07' W 000°27'5814.5
2014-Sep-15 06:32N 37°03' W 000°06'1815.3
2014-Sep-15 05:23N 37°20' W 000°00'1214.7
2014-Sep-15 04:33N 37°31' E 000°05'1514.7
2014-Sep-15 03:33N 37°46' E 000°09'1514.7
2014-Sep-15 02:33N 37°60' E 000°14'8613.2
2014-Sep-14 20:04N 39°22' W 000°12'612.4
2014-Sep-14 19:33N 39°26' W 000°19'0 0.3
2014-Sep-14 18:33N 39°26' W 000°19'0 0.0
2014-Sep-14 17:33N 39°26' W 000°19'0 0.0
2014-Sep-14 16:33N 39°26' W 000°19'0 0.0
2014-Sep-14 15:33N 39°26' W 000°19'0 0.0
2014-Sep-14 14:33N 39°26' W 000°19'0 0.0
2014-Sep-14 13:33N 39°26' W 000°19'0 0.0
2014-Sep-14 12:33N 39°26' W 000°19'0 0.0
2014-Sep-14 11:33N 39°26' W 000°19'0 0.0
2014-Sep-14 10:33N 39°26' W 000°19'0 0.0
2014-Sep-14 09:33N 39°26' W 000°19'0 0.0
2014-Sep-14 08:32N 39°26' W 000°19'0 0.0
2014-Sep-14 07:32N 39°26' W 000°19'0 0.0
2014-Sep-14 06:29N 39°26' W 000°19'0 0.0
2014-Sep-14 05:33N 39°26' W 000°19'1 0.5
2014-Sep-14 04:32N 39°26' W 000°19'0 0.0
2014-Sep-14 03:32N 39°26' W 000°19'0 0.0
2014-Sep-14 02:32N 39°26' W 000°19'0 0.0
2014-Sep-14 01:32N 39°26' W 000°19'0 0.0
2014-Sep-13 21:32N 39°26' W 000°19'0 0.0
2014-Sep-13 20:32N 39°26' W 000°19'0 0.0
2014-Sep-13 19:32N 39°26' W 000°19'0 0.0
2014-Sep-13 18:32N 39°26' W 000°19'0 0.0
2014-Sep-13 17:32N 39°26' W 000°19'0 0.0
2014-Sep-13 16:29N 39°26' W 000°19'0 0.0
2014-Sep-13 15:32N 39°26' W 000°19'0 0.0
2014-Sep-13 14:32N 39°26' W 000°19'0 0.0
2014-Sep-13 13:32N 39°26' W 000°19'0 0.0
2014-Sep-13 12:32N 39°26' W 000°19'0 0.0
2014-Sep-13 11:32N 39°26' W 000°19'0 0.0
2014-Sep-13 10:32N 39°26' W 000°19'0 0.0
2014-Sep-13 09:32N 39°26' W 000°19'0 0.0
2014-Sep-13 08:32N 39°26' W 000°19'0 0.0
2014-Sep-13 07:32N 39°26' W 000°19'0 0.0
2014-Sep-13 06:32N 39°26' W 000°19'0 0.0
2014-Sep-13 05:32N 39°26' W 000°19'0 0.0
2014-Sep-13 04:32N 39°26' W 000°19'0 0.0
2014-Sep-13 03:32N 39°26' W 000°19'0 0.0
2014-Sep-13 02:32N 39°26' W 000°19'0 0.0
2014-Sep-13 01:29N 39°26' W 000°19'0 0.3
2014-Sep-13 00:33N 39°26' W 000°19'3 0.6
2014-Sep-12 19:23N 39°24' W 000°17'0 0.0
2014-Sep-12 17:29N 39°24' W 000°17'0 0.0
2014-Sep-12 15:11N 39°24' W 000°17'1 1.0
2014-Sep-12 14:33N 39°23' W 000°16'7 7.3
2014-Sep-12 13:33N 39°19' W 000°09'51 8.4
2014-Sep-12 07:33N 38°37' E 000°29'10 8.7
2014-Sep-12 06:23N 38°27' E 000°25'9 8.1
2014-Sep-12 05:18N 38°19' E 000°22'7 9.3
2014-Sep-12 04:33N 38°12' E 000°20'9 8.9
2014-Sep-12 03:33N 38°04' E 000°17'9 9.1
2014-Sep-12 02:33N 37°55' E 000°14'10 9.7
2014-Sep-12 01:33N 37°45' E 000°11'9 9.5
2014-Sep-12 00:33N 37°36' E 000°08'9 9.2
2014-Sep-11 23:32N 37°27' E 000°05'9 9.3
2014-Sep-11 22:32N 37°18' E 000°02'9 9.5
2014-Sep-11 21:33N 37°09' W 000°01'14 9.9
2014-Sep-11 20:06N 36°55' W 000°06'24 9.4
2014-Sep-11 17:32N 36°32' W 000°13'9 9.2
2014-Sep-11 16:33N 36°23' W 000°16'9 9.3
2014-Sep-11 15:33N 36°14' W 000°19'10 9.5
2014-Sep-11 14:28N 36°04' W 000°23'2311.8
2014-Sep-11 12:30N 35°44' W 000°37'2 0.1
2014-Sep-11 00:17N 35°43' W 000°38'0 0.0
2014-Sep-08 21:24N 35°43' W 000°38'0 0.0
2014-Sep-08 18:15N 35°43' W 000°38'0 0.0
2014-Sep-08 17:30N 35°43' W 000°38'0 0.0
2014-Sep-08 13:18N 35°43' W 000°38'0 0.0
2014-Sep-08 11:30N 35°43' W 000°38'1 0.1
2014-Sep-07 18:27N 35°43' W 000°37'1 0.9
2014-Sep-07 17:19N 35°44' W 000°37'0 0.0
2014-Sep-07 14:18N 35°44' W 000°37'0 0.0
2014-Sep-07 13:25N 35°44' W 000°37'0 0.0
2014-Sep-07 07:32N 35°45' W 000°37'  

Dump ship's entire track history